Time;durP1;ratioP1;P1;durP2;ratioP2;P2;SDS_P1;SDS_P2;PMS_P1;PMS_P2;Temp;Humidity;BMP_temperature;BMP_pressure;BME280_temperature;BME280_humidity;BME280_pressure;Samples;Min_cycle;Max_cycle;Signal;HPM_P1;HPM_P2
2021/06/07 00:02:12;;;;;;;22.55;20.42;;;;;;;18.15;71.41;101029.31;4883612;28;126849;-71
2021/06/07 00:04:38;;;;;;;21.85;19.95;;;;;;;18.35;71.12;101038.19;4902414;28;98459;-71
2021/06/07 00:07:07;;;;;;;23.50;21.35;;;;;;;18.39;70.60;101037.28;4866772;28;98139;-72
2021/06/07 00:09:33;;;;;;;23.02;20.92;;;;;;;18.40;70.72;101032.63;4882488;28;103544;-72
2021/06/07 00:12:03;;;;;;;22.67;20.55;;;;;;;18.45;71.03;101037.97;4900126;28;99125;-72
2021/06/07 00:14:31;;;;;;;23.73;21.42;;;;;;;18.39;71.15;101034.56;4900365;28;117795;-71
2021/06/07 00:16:57;;;;;;;23.60;21.48;;;;;;;18.29;72.00;101039.41;4900424;28;97781;-71
2021/06/07 00:19:24;;;;;;;23.60;21.40;;;;;;;18.28;71.99;101040.53;4900462;28;109738;-73
2021/06/07 00:21:50;;;;;;;23.77;21.48;;;;;;;18.24;72.17;101040.34;4899822;28;100991;-72
2021/06/07 00:24:17;;;;;;;23.67;21.45;;;;;;;18.22;72.31;101042.53;4882670;28;98066;-71
2021/06/07 00:26:44;;;;;;;25.58;23.13;;;;;;;18.37;71.73;101042.22;4883312;28;98214;-72
2021/06/07 00:29:10;;;;;;;24.13;21.77;;;;;;;18.15;72.37;101039.41;4920005;28;98489;-71
2021/06/07 00:31:36;;;;;;;24.25;21.95;;;;;;;18.29;72.17;101036.69;4918878;28;127961;-71
2021/06/07 00:34:03;;;;;;;24.92;22.00;;;;;;;18.25;72.70;101039.22;4901932;28;98180;-71
2021/06/07 00:36:29;;;;;;;25.02;22.63;;;;;;;18.22;72.47;101042.53;4920120;28;97792;-71
2021/06/07 00:38:55;;;;;;;25.98;23.58;;;;;;;18.19;72.95;101045.88;4919181;28;99464;-71
2021/06/07 00:41:22;;;;;;;27.40;24.83;;;;;;;18.02;73.81;101051.94;4919604;28;128750;-71
2021/06/07 00:43:58;;;;;;;28.75;25.83;;;;;;;18.12;73.66;101053.69;4901707;28;97881;-71
2021/06/07 00:46:25;;;;;;;27.20;24.50;;;;;;;18.12;74.03;101051.75;4920155;28;97988;-72
2021/06/07 00:48:52;;;;;;;29.08;26.33;;;;;;;18.03;74.47;101050.03;4901188;28;98487;-71
2021/06/07 00:51:18;;;;;;;28.88;25.98;;;;;;;18.08;74.32;101052.69;4886031;28;98549;-71
2021/06/07 00:53:44;;;;;;;28.80;26.00;;;;;;;17.85;74.74;101049.03;4918605;28;127437;-72
2021/06/07 00:56:11;;;;;;;30.52;27.42;;;;;;;17.90;75.02;101043.47;4919108;28;103510;-71
2021/06/07 00:58:40;;;;;;;31.52;28.35;;;;;;;18.07;74.83;101045.59;4919321;28;98337;-71
2021/06/07 01:01:11;;;;;;;33.45;29.75;;;;;;;17.91;75.68;101051.34;4886323;28;98386;-71
2021/06/07 01:03:38;;;;;;;33.25;29.75;;;;;;;17.89;76.13;101050.03;4919249;28;98249;-71
2021/06/07 01:06:05;;;;;;;34.40;30.70;;;;;;;18.03;76.19;101042.66;4886171;28;97881;-71
2021/06/07 01:08:31;;;;;;;34.80;30.70;;;;;;;18.08;75.84;101053.47;4918863;28;99234;-72
2021/06/07 01:10:57;;;;;;;33.33;29.73;;;;;;;18.13;75.87;101050.63;4919309;28;98434;-72
2021/06/07 01:13:25;;;;;;;37.40;32.17;;;;;;;18.09;76.45;101052.34;4901168;28;109109;-71
2021/06/07 01:15:53;;;;;;;37.00;32.08;;;;;;;18.13;76.27;101044.38;4885474;28;98878;-72
2021/06/07 01:18:20;;;;;;;40.55;35.60;;;;;;;17.86;77.29;101053.38;4919016;28;98002;-71
2021/06/07 01:20:47;;;;;;;39.10;33.53;;;;;;;18.15;76.83;101056.59;4903196;28;98123;-71
2021/06/07 01:23:13;;;;;;;38.72;34.42;;;;;;;17.88;77.67;101053.84;4888704;28;98036;-72
2021/06/07 01:25:42;;;;;;;40.30;35.17;;;;;;;17.76;78.64;101051.63;4923154;28;97830;-72
2021/06/07 01:28:11;;;;;;;40.10;34.88;;;;;;;17.87;78.16;101054.97;4903811;28;99189;-71
2021/06/07 01:30:40;;;;;;;40.00;33.67;;;;;;;18.05;77.52;101058.72;4904625;28;98548;-72
2021/06/07 01:33:08;;;;;;;41.85;34.75;;;;;;;18.01;77.72;101053.06;4922032;28;97943;-71
2021/06/07 01:35:34;;;;;;;40.10;34.90;;;;;;;17.93;78.03;101063.88;4921694;28;110766;-71
2021/06/07 01:38:00;;;;;;;39.22;34.20;;;;;;;18.12;77.49;101053.69;4921375;28;118396;-71
2021/06/07 01:40:34;;;;;;;43.22;35.08;;;;;;;17.87;78.71;101063.16;4921831;28;98588;-72
2021/06/07 01:43:00;;;;;;;46.80;38.33;;;;;;;17.90;78.18;101057.91;4922772;28;98288;-72
2021/06/07 01:45:28;;;;;;;44.28;37.08;;;;;;;17.84;78.69;101064.59;4922419;28;97743;-72
2021/06/07 01:47:54;;;;;;;44.05;35.17;;;;;;;18.01;78.02;101060.44;4922203;28;98331;-71
2021/06/07 01:50:21;;;;;;;41.42;34.47;;;;;;;18.11;77.60;101058.31;4921744;28;98530;-71
2021/06/07 01:52:49;;;;;;;43.90;35.75;;;;;;;17.72;79.00;101064.22;4920187;28;129526;-71
2021/06/07 01:55:21;;;;;;;40.38;34.85;;;;;;;17.73;79.00;101071.31;4887590;28;98162;-72
2021/06/07 01:57:47;;;;;;;43.03;36.17;;;;;;;17.74;78.81;101063.94;4921863;28;112822;-72
2021/06/07 02:00:39;;;;;;;40.60;34.83;;;;;;;17.96;78.10;101061.38;4903885;28;107832;-71
2021/06/07 02:03:06;;;;;;;38.60;33.20;;;;;;;17.94;78.40;101069.03;4908031;28;98090;-71
2021/06/07 02:05:34;;;;;;;39.58;33.83;;;;;;;18.06;77.89;101068.53;4888248;28;97988;-71
2021/06/07 02:08:03;;;;;;;37.40;32.10;;;;;;;18.13;77.30;101067.00;4904110;28;98845;-70
2021/06/07 02:10:31;;;;;;;40.42;34.63;;;;;;;17.93;78.04;101072.06;4903475;28;106546;-71
2021/06/07 02:12:57;;;;;;;37.13;32.05;;;;;;;18.17;77.16;101061.75;4921484;28;97883;-71
2021/06/07 02:15:23;;;;;;;36.95;32.88;;;;;;;18.12;76.97;101068.13;4921460;28;110775;-71
2021/06/07 02:17:49;;;;;;;38.17;33.03;;;;;;;18.12;77.18;101067.31;4902303;28;112481;-71
2021/06/07 02:20:18;;;;;;;37.08;32.38;;;;;;;18.15;76.92;101066.69;4887050;28;98356;-72
2021/06/07 02:22:45;;;;;;;38.47;33.28;;;;;;;18.05;76.91;101072.38;4904073;28;102221;-71
2021/06/07 02:25:15;;;;;;;37.55;33.13;;;;;;;18.15;76.95;101064.78;4904541;28;98182;-71
2021/06/07 02:27:41;;;;;;;35.13;31.35;;;;;;;18.18;76.91;101057.09;4887538;28;108601;-72
2021/06/07 02:30:11;;;;;;;37.15;32.90;;;;;;;18.22;76.53;101063.56;4901936;28;128346;-72
2021/06/07 02:32:37;;;;;;;35.30;31.48;;;;;;;18.08;76.83;101066.31;4921205;28;107895;-71
2021/06/07 02:35:06;;;;;;;37.22;32.13;;;;;;;17.94;77.25;101073.66;4922097;28;97792;-71
2021/06/07 02:37:32;;;;;;;35.85;31.98;;;;;;;17.93;77.44;101074.78;4920313;28;117351;-72
2021/06/07 02:39:59;;;;;;;36.67;32.78;;;;;;;18.00;77.04;101072.44;4920041;28;128080;-70
2021/06/07 02:42:25;;;;;;;38.33;31.02;;;;;;;18.04;77.04;101077.03;4921854;28;98374;-71
2021/06/07 02:44:51;;;;;;;36.13;32.15;;;;;;;18.06;76.74;101074.78;4902139;28;123159;-72
2021/06/07 02:47:17;;;;;;;34.50;30.80;;;;;;;18.22;76.08;101080.75;4886400;28;126729;-70
2021/06/07 02:49:43;;;;;;;36.65;31.88;;;;;;;18.22;76.10;101082.66;4919993;28;124651;-72
2021/06/07 02:52:09;;;;;;;34.60;30.88;;;;;;;18.19;76.25;101083.25;4919600;28;126069;-70
2021/06/07 02:54:35;;;;;;;33.45;29.75;;;;;;;18.33;75.70;101087.59;4886874;28;122054;-71
2021/06/07 02:57:02;;;;;;;35.33;31.48;;;;;;;18.27;75.68;101091.53;4920139;28;128315;-70
2021/06/07 02:59:28;;;;;;;34.72;31.10;;;;;;;18.27;75.26;101086.09;4920238;28;120189;-72
2021/06/07 03:01:55;;;;;;;32.90;29.42;;;;;;;18.27;74.77;101088.00;4903776;28;127404;-71
2021/06/07 03:04:21;;;;;;;34.17;29.90;;;;;;;18.13;75.51;101093.47;4883308;28;121510;-76
2021/06/07 03:06:47;;;;;;;35.47;29.73;;;;;;;18.16;75.07;101090.16;4901705;28;98179;-71
2021/06/07 03:09:13;;;;;;;32.95;29.42;;;;;;;18.19;74.86;101084.06;4866809;28;127921;-71
2021/06/07 03:11:39;;;;;;;32.35;28.85;;;;;;;18.22;74.87;101085.41;4900639;28;126797;-70
2021/06/07 03:14:05;;;;;;;31.40;28.00;;;;;;;18.25;74.88;101088.31;4901356;28;122669;-71
2021/06/07 03:16:31;;;;;;;33.05;29.23;;;;;;;18.15;75.38;101091.25;4901038;28;125752;-70
2021/06/07 03:18:57;;;;;;;33.25;29.67;;;;;;;18.11;75.33;101088.31;4882228;28;129029;-71
2021/06/07 03:21:23;;;;;;;34.30;29.38;;;;;;;18.18;75.24;101081.66;4881966;28;128194;-72
2021/06/07 03:23:49;;;;;;;35.03;30.02;;;;;;;18.22;74.76;101094.38;4901119;28;97954;-70
2021/06/07 03:26:15;;;;;;;32.28;28.80;;;;;;;18.18;74.82;101090.66;4901341;28;114951;-72
2021/06/07 03:28:41;;;;;;;33.08;29.63;;;;;;;18.06;75.04;101088.41;4899533;28;120309;-73
2021/06/07 03:31:08;;;;;;;32.92;29.33;;;;;;;18.21;74.77;101090.03;4883549;28;97861;-70
2021/06/07 03:33:34;;;;;;;31.77;28.33;;;;;;;18.26;74.57;101095.38;4867427;28;97844;-71
2021/06/07 03:36:01;;;;;;;32.75;29.25;;;;;;;18.18;74.35;101089.84;4883256;28;98747;-70
2021/06/07 03:38:31;;;;;;;32.13;28.38;;;;;;;18.11;74.46;101101.16;4899567;28;127885;-70
2021/06/07 03:40:58;;;;;;;31.35;28.00;;;;;;;18.15;74.46;101097.50;4897330;28;113070;-71
2021/06/07 03:43:34;;;;;;;31.40;28.10;;;;;;;18.12;74.57;101105.50;4895732;28;97975;-72
2021/06/07 03:46:00;;;;;;;32.17;28.52;;;;;;;18.25;73.76;101112.06;4900765;28;117438;-70
2021/06/07 03:48:27;;;;;;;31.60;28.23;;;;;;;18.24;73.91;101105.81;4901271;28;98354;-70
2021/06/07 03:50:53;;;;;;;30.85;27.60;;;;;;;18.38;73.59;101112.06;4901065;28;109419;-70
2021/06/07 03:53:19;;;;;;;30.85;27.50;;;;;;;18.13;74.22;101115.31;4899166;28;97870;-70
2021/06/07 03:55:45;;;;;;;29.85;26.50;;;;;;;18.23;73.73;101112.34;4900163;28;115482;-71
2021/06/07 03:58:12;;;;;;;31.05;27.83;;;;;;;18.35;73.69;101111.84;4900529;28;128046;-70
2021/06/07 04:00:39;;;;;;;30.48;27.25;;;;;;;18.37;73.55;101118.63;4900166;28;97852;-71
2021/06/07 04:03:06;;;;;;;31.88;28.55;;;;;;;18.42;73.41;101117.72;4899733;28;97952;-70
2021/06/07 04:05:33;;;;;;;29.88;26.55;;;;;;;18.52;72.92;101116.72;4900681;28;99488;-71
2021/06/07 04:08:00;;;;;;;31.02;27.63;;;;;;;18.56;72.54;101121.25;4900695;28;98121;-70
2021/06/07 04:10:27;;;;;;;30.58;27.27;;;;;;;18.51;72.71;101123.25;4901238;28;98125;-71
2021/06/07 04:12:53;;;;;;;30.73;27.25;;;;;;;18.43;72.52;101123.97;4900991;28;99486;-70
2021/06/07 04:15:24;;;;;;;30.35;27.13;;;;;;;18.45;72.39;101117.13;4883051;28;109342;-72
2021/06/07 04:17:51;;;;;;;29.43;26.23;;;;;;;18.61;72.10;101123.88;4883448;28;108400;-70
2021/06/07 04:20:19;;;;;;;30.10;26.98;;;;;;;18.63;72.04;101124.38;4882744;28;98366;-71
2021/06/07 04:22:46;;;;;;;31.67;27.88;;;;;;;18.47;72.18;101128.56;4897672;28;100880;-70
2021/06/07 04:25:14;;;;;;;30.42;27.00;;;;;;;18.52;72.80;101130.38;4904472;28;97794;-70
2021/06/07 04:27:40;;;;;;;29.98;26.73;;;;;;;18.72;71.81;101132.69;4919258;28;99026;-72
2021/06/07 04:30:08;;;;;;;30.50;27.20;;;;;;;18.76;71.81;101127.44;4920107;28;97913;-72
2021/06/07 04:32:34;;;;;;;31.13;27.83;;;;;;;18.89;71.27;101134.78;4919147;28;110132;-70
2021/06/07 04:35:01;;;;;;;30.95;27.52;;;;;;;18.71;71.52;101136.53;4919415;28;98146;-71
2021/06/07 04:37:28;;;;;;;31.90;28.50;;;;;;;18.82;71.68;101137.94;4920770;28;98457;-70
2021/06/07 04:39:54;;;;;;;29.77;26.65;;;;;;;18.86;71.35;101133.47;4918546;28;98044;-71
2021/06/07 04:42:20;;;;;;;32.50;28.95;;;;;;;18.68;71.52;101134.38;4897431;28;110849;-70
2021/06/07 04:44:47;;;;;;;32.65;29.30;;;;;;;18.71;71.52;101136.53;4888317;28;127707;-72
2021/06/07 04:47:13;;;;;;;31.63;28.33;;;;;;;19.06;70.60;101134.13;4895900;28;99133;-70
2021/06/07 04:49:39;;;;;;;32.70;29.30;;;;;;;18.97;70.06;101127.78;4895836;28;115242;-72
2021/06/07 04:52:06;;;;;;;32.42;29.20;;;;;;;19.12;69.70;101132.91;4898082;28;107878;-72
2021/06/07 04:54:32;;;;;;;32.13;28.83;;;;;;;19.08;70.87;101138.16;4896367;28;101120;-70
2021/06/07 04:56:58;;;;;;;33.03;29.52;;;;;;;19.33;69.29;101134.03;4896313;28;128034;-71
2021/06/07 04:59:24;;;;;;;32.40;29.08;;;;;;;19.36;69.12;101133.41;4869400;28;126968;-70
2021/06/07 05:01:50;;;;;;;32.83;29.08;;;;;;;19.13;69.67;101129.84;4907447;28;122748;-72
2021/06/07 05:04:16;;;;;;;32.53;29.02;;;;;;;19.11;69.14;101143.03;4915316;28;127995;-70
2021/06/07 05:06:42;;;;;;;32.78;29.42;;;;;;;19.11;69.56;101131.28;4882241;28;105481;-73
2021/06/07 05:09:08;;;;;;;34.97;31.27;;;;;;;19.07;69.24;101135.75;4918977;28;118324;-74
2021/06/07 05:11:34;;;;;;;33.13;28.80;;;;;;;19.15;69.44;101136.94;4918965;28;104390;-72
2021/06/07 05:14:00;;;;;;;33.78;29.88;;;;;;;19.09;69.32;101131.56;4899668;28;126969;-70
2021/06/07 05:16:26;;;;;;;33.28;29.83;;;;;;;19.08;68.96;101134.63;4901017;28;127967;-73
2021/06/07 05:18:52;;;;;;;34.22;29.05;;;;;;;19.30;68.58;101129.19;4919833;28;103017;-70
2021/06/07 05:21:18;;;;;;;31.80;28.13;;;;;;;19.55;68.07;101140.63;4900851;28;124083;-72
2021/06/07 05:23:44;;;;;;;32.13;28.67;;;;;;;19.44;67.86;101137.31;4901179;28;100056;-72
2021/06/07 05:26:10;;;;;;;31.98;28.67;;;;;;;19.31;68.56;101140.94;4901349;28;98908;-71
2021/06/07 05:28:36;;;;;;;32.58;27.85;;;;;;;19.45;68.22;101144.41;4900684;28;110398;-72
2021/06/07 05:31:03;;;;;;;30.50;27.33;;;;;;;19.85;67.05;101137.16;4917943;28;97878;-70
2021/06/07 05:33:29;;;;;;;31.08;27.90;;;;;;;20.03;66.12;101146.22;4917611;28;128045;-72
2021/06/07 05:35:55;;;;;;;30.98;27.67;;;;;;;20.39;64.54;101144.44;4918575;28;126774;-72
2021/06/07 05:38:21;;;;;;;30.75;27.48;;;;;;;20.57;64.21;101146.16;4899441;28;127274;-71
2021/06/07 05:40:49;;;;;;;31.50;27.88;;;;;;;20.46;64.35;101144.78;4884298;28;97963;-70
2021/06/07 05:43:19;;;;;;;30.20;27.10;;;;;;;20.54;63.84;101147.59;4900693;28;98438;-70
2021/06/07 05:45:46;;;;;;;31.63;28.13;;;;;;;20.16;64.75;101150.00;4916494;28;100384;-73
2021/06/07 05:48:12;;;;;;;31.48;28.38;;;;;;;20.23;63.99;101144.88;4918408;28;98088;-71
2021/06/07 05:50:39;;;;;;;30.48;27.35;;;;;;;20.93;61.53;101143.16;4900196;28;98094;-71
2021/06/07 05:53:06;;;;;;;27.58;24.90;;;;;;;21.24;60.84;101142.22;4869523;28;98536;-72
2021/06/07 05:55:38;;;;;;;27.95;25.17;;;;;;;21.43;59.64;101147.38;4900038;28;110487;-72
2021/06/07 05:58:07;;;;;;;27.63;24.83;;;;;;;23.01;55.60;101150.00;4901541;28;97814;-72
2021/06/07 06:00:37;;;;;;;27.05;24.45;;;;;;;23.41;53.72;101155.81;4868762;28;97955;-73
2021/06/07 06:03:03;;;;;;;25.42;23.13;;;;;;;24.24;51.74;101160.28;4917005;28;98413;-73
2021/06/07 06:05:29;;;;;;;26.55;23.85;;;;;;;23.18;53.74;101155.38;4907720;28;119153;-71
2021/06/07 06:07:55;;;;;;;26.48;23.98;;;;;;;22.34;55.31;101159.13;4871458;28;111471;-71
2021/06/07 06:10:22;;;;;;;27.40;24.70;;;;;;;21.44;57.76;101160.75;4917092;28;98129;-73
2021/06/07 06:12:48;;;;;;;26.80;24.20;;;;;;;22.69;54.98;101155.03;4920991;28;109743;-73
2021/06/07 06:15:17;;;;;;;24.83;22.52;;;;;;;23.72;52.50;101154.59;4921541;28;98166;-72
2021/06/07 06:17:44;;;;;;;23.88;21.48;;;;;;;26.65;46.02;101149.38;4922148;28;97982;-71
2021/06/07 06:20:10;;;;;;;24.75;22.55;;;;;;;25.67;47.27;101155.56;4921236;28;98504;-73
2021/06/07 06:22:37;;;;;;;23.70;21.45;;;;;;;25.07;49.16;101163.69;4921494;28;99376;-71
2021/06/07 06:25:06;;;;;;;25.05;22.65;;;;;;;24.21;49.96;101160.19;4903137;28;98843;-73
2021/06/07 06:27:32;;;;;;;24.45;22.25;;;;;;;26.16;45.95;101156.06;4921756;28;98487;-71
2021/06/07 06:29:58;;;;;;;24.10;21.77;;;;;;;25.86;45.81;101152.97;4921966;28;97946;-73
2021/06/07 06:32:24;;;;;;;21.75;19.85;;;;;;;26.14;46.48;101165.88;4919565;28;98315;-71
2021/06/07 06:34:50;;;;;;;23.30;21.08;;;;;;;27.27;43.16;101160.59;4919793;28;128043;-71
2021/06/07 06:37:16;;;;;;;21.63;19.73;;;;;;;26.66;43.60;101154.53;4903695;28;98149;-72
2021/06/07 06:39:42;;;;;;;21.00;19.17;;;;;;;27.14;43.40;101160.75;4867039;28;121668;-71
2021/06/07 06:42:09;;;;;;;21.90;20.02;;;;;;;26.66;44.72;101153.75;4868734;28;98891;-71
2021/06/07 06:44:35;;;;;;;20.63;18.73;;;;;;;26.57;44.50;101164.19;4901023;28;108672;-72
2021/06/07 06:47:01;;;;;;;20.75;18.83;;;;;;;26.42;44.26;101160.25;4902213;28;97955;-72
2021/06/07 06:49:27;;;;;;;21.48;19.20;;;;;;;26.07;45.83;101160.97;4884539;28;100932;-71
2021/06/07 06:51:56;;;;;;;20.23;18.35;;;;;;;26.32;44.85;101166.31;4895735;28;98075;-73
2021/06/07 06:54:22;;;;;;;20.73;18.85;;;;;;;26.87;42.63;101159.72;4920359;28;98929;-71
2021/06/07 06:56:49;;;;;;;20.10;18.30;;;;;;;27.31;42.07;101155.94;4920062;28;127117;-72
2021/06/07 06:59:16;;;;;;;20.20;18.40;;;;;;;27.55;42.02;101160.34;4920702;28;98046;-72
2021/06/07 07:01:42;;;;;;;19.88;18.17;;;;;;;26.83;43.66;101158.84;4920223;28;127919;-71
2021/06/07 07:04:08;;;;;;;21.45;19.55;;;;;;;26.66;44.30;101150.97;4902934;28;116885;-72
2021/06/07 07:06:36;;;;;;;21.35;19.45;;;;;;;25.80;46.00;101154.34;4900691;28;126060;-72
2021/06/07 07:09:03;;;;;;;20.15;18.25;;;;;;;26.16;43.80;101152.50;4903677;28;98108;-71
2021/06/07 07:11:29;;;;;;;18.80;17.13;;;;;;;27.13;42.35;101159.16;4904055;28;98384;-70
2021/06/07 07:13:55;;;;;;;18.58;16.98;;;;;;;26.60;43.67;101163.47;4916712;28;121567;-72
2021/06/07 07:16:21;;;;;;;18.90;17.13;;;;;;;27.16;41.75;101163.16;4902657;28;111096;-72
2021/06/07 07:18:47;;;;;;;18.67;17.08;;;;;;;27.87;41.28;101161.00;4919729;28;97678;-72
2021/06/07 07:21:13;;;;;;;17.95;16.35;;;;;;;27.63;40.99;101164.88;4906967;28;114296;-72
2021/06/07 07:23:39;;;;;;;16.52;15.10;;;;;;;28.12;38.83;101162.22;4885587;28;128183;-70
2021/06/07 07:26:05;;;;;;;16.42;15.02;;;;;;;28.47;38.53;101161.22;4870992;28;127282;-72
2021/06/07 07:28:31;;;;;;;18.17;16.35;;;;;;;27.66;39.98;101173.22;4886407;28;122314;-70
2021/06/07 07:30:57;;;;;;;16.92;15.52;;;;;;;28.98;38.31;101160.78;4898495;28;129696;-70
2021/06/07 07:33:23;;;;;;;16.48;15.05;;;;;;;28.84;37.66;101168.88;4901664;28;102094;-73
2021/06/07 07:35:50;;;;;;;17.77;16.05;;;;;;;29.27;37.66;101167.50;4900705;28;121920;-72
2021/06/07 07:38:16;;;;;;;18.33;16.73;;;;;;;27.64;39.79;101166.47;4883729;28;98073;-73
2021/06/07 07:40:42;;;;;;;18.02;16.50;;;;;;;28.60;39.06;101164.59;4901378;28;112380;-70
2021/06/07 07:43:11;;;;;;;18.25;16.65;;;;;;;28.12;39.38;101170.53;4902212;28;100910;-73
2021/06/07 07:45:38;;;;;;;17.80;16.20;;;;;;;29.09;37.60;101167.28;4903339;28;98170;-73
2021/06/07 07:48:06;;;;;;;17.90;16.30;;;;;;;30.14;35.48;101161.66;4902841;28;101181;-73
2021/06/07 07:50:33;;;;;;;17.58;16.17;;;;;;;28.97;37.44;101166.69;4885356;28;98145;-71
2021/06/07 07:52:59;;;;;;;18.05;16.45;;;;;;;30.52;35.30;101157.63;4887313;28;98433;-71
2021/06/07 07:55:28;;;;;;;15.27;13.98;;;;;;;30.13;35.87;101164.84;4919908;28;126762;-71
2021/06/07 07:57:55;;;;;;;16.05;14.65;;;;;;;30.32;35.56;101165.41;4921019;28;98065;-74
2021/06/07 08:00:24;;;;;;;16.30;14.88;;;;;;;31.11;34.42;101162.34;4900875;28;98536;-74
2021/06/07 08:02:50;;;;;;;17.55;15.95;;;;;;;31.08;34.49;101171.47;4882962;28;98937;-74
2021/06/07 08:05:16;;;;;;;17.20;15.52;;;;;;;30.50;35.05;101175.88;4901049;28;97903;-70
2021/06/07 08:07:42;;;;;;;17.20;15.73;;;;;;;30.30;34.66;101166.97;4900910;28;97983;-75
2021/06/07 08:10:09;;;;;;;17.33;15.75;;;;;;;31.93;33.70;101168.19;4899718;28;127950;-75
2021/06/07 08:12:36;;;;;;;16.95;15.35;;;;;;;32.50;31.33;101166.22;4882869;28;98470;-71
2021/06/07 08:15:03;;;;;;;15.18;13.98;;;;;;;33.92;29.41;101166.00;4869087;28;127643;-75
2021/06/07 08:17:29;;;;;;;16.45;14.90;;;;;;;34.00;29.12;101175.16;4902956;28;97861;-76
2021/06/07 08:19:55;;;;;;;16.13;14.82;;;;;;;32.55;31.63;101158.63;4919843;28;100200;-75
2021/06/07 08:22:21;;;;;;;16.52;15.13;;;;;;;32.54;32.37;101157.84;4894499;28;127768;-71
2021/06/07 08:24:47;;;;;;;17.10;15.60;;;;;;;32.34;31.63;101159.41;4900321;28;127164;-71
2021/06/07 08:27:13;;;;;;;16.60;14.90;;;;;;;33.52;29.76;101157.06;4897741;28;120819;-75
2021/06/07 08:29:39;;;;;;;17.70;15.98;;;;;;;32.91;30.78;101151.75;4881491;28;126423;-73
2021/06/07 08:32:06;;;;;;;16.33;14.93;;;;;;;31.95;32.25;101152.66;4873727;28;128027;-70
2021/06/07 08:34:33;;;;;;;16.17;14.88;;;;;;;33.25;30.69;101151.25;4885271;28;99942;-69
2021/06/07 08:36:59;;;;;;;16.75;15.35;;;;;;;33.95;29.33;101149.19;4870257;28;102298;-69
2021/06/07 08:39:25;;;;;;;15.27;13.88;;;;;;;34.40;28.83;101157.63;4918927;28;128153;-69
2021/06/07 08:41:51;;;;;;;16.42;15.02;;;;;;;32.74;30.75;101144.22;4878568;28;127918;-69
2021/06/07 08:44:17;;;;;;;15.88;14.48;;;;;;;32.67;31.68;101149.81;4900609;28;98196;-74
2021/06/07 08:46:45;;;;;;;14.60;13.40;;;;;;;34.83;28.80;101157.19;4886994;28;100113;-69
2021/06/07 08:49:11;;;;;;;15.48;13.95;;;;;;;35.07;27.47;101152.53;4884598;28;115826;-70
2021/06/07 08:51:37;;;;;;;16.10;14.73;;;;;;;35.81;25.99;101149.91;4914545;28;123206;-74
2021/06/07 08:54:03;;;;;;;15.38;14.07;;;;;;;34.75;27.30;101158.50;4852986;28;126807;-70
2021/06/07 08:56:29;;;;;;;15.18;13.90;;;;;;;35.47;26.43;101149.19;4916045;28;98097;-70
2021/06/07 08:58:55;;;;;;;14.80;13.52;;;;;;;33.87;29.82;101146.88;4878272;28;128033;-76
2021/06/07 09:01:21;;;;;;;14.73;13.32;;;;;;;35.65;26.57;101144.16;4898005;28;123001;-76
2021/06/07 09:03:47;;;;;;;14.63;13.43;;;;;;;34.93;28.03;101141.47;4872317;28;127017;-76
2021/06/07 09:06:16;;;;;;;14.73;13.18;;;;;;;36.29;26.07;101145.13;4885495;28;123091;-76
2021/06/07 09:08:42;;;;;;;14.60;13.30;;;;;;;36.73;24.71;101149.50;4897052;28;99506;-70
2021/06/07 09:11:16;;;;;;;14.77;13.48;;;;;;;33.98;28.20;101149.63;4900269;28;127061;-70
2021/06/07 09:13:43;;;;;;;13.60;12.50;;;;;;;35.01;27.44;101145.78;4913071;28;102126;-69
2021/06/07 09:16:10;;;;;;;13.70;12.48;;;;;;;34.97;27.21;101133.81;4901792;28;97848;-76
2021/06/07 09:18:38;;;;;;;13.95;12.68;;;;;;;34.83;27.05;101142.41;4884447;28;98611;-69
2021/06/07 09:21:23;;;;;;;13.60;12.30;;;;;;;32.17;31.18;101139.50;4900118;28;98609;-70
2021/06/07 09:24:02;;;;;;;13.55;12.38;;;;;;;31.86;31.42;101134.72;4914980;28;103525;-76
2021/06/07 09:26:32;;;;;;;14.10;12.68;;;;;;;31.51;32.93;101137.03;4901261;28;102926;-76
2021/06/07 09:29:00;;;;;;;15.35;13.75;;;;;;;32.18;30.85;101118.78;4900077;28;98879;-69
2021/06/07 09:31:32;;;;;;;14.63;13.32;;;;;;;29.90;34.80;101126.13;4882043;28;98517;-69
2021/06/07 09:34:01;;;;;;;13.30;12.15;;;;;;;29.98;34.62;101138.91;4901237;28;98266;-69
2021/06/07 09:36:33;;;;;;;12.75;11.65;;;;;;;31.33;31.96;101121.50;4900241;28;98178;-69
2021/06/07 09:39:25;;;;;;;13.80;11.20;;;;;;;34.86;27.21;101114.38;4874823;28;99227;-70
2021/06/07 09:41:57;;;;;;;11.38;10.38;;;;;;;34.07;28.26;101133.16;4918189;28;98883;-76
2021/06/07 09:44:30;;;;;;;11.65;10.63;;;;;;;36.05;24.88;101133.91;4920536;28;98578;-76
2021/06/07 09:47:18;;;;;;;10.80;9.82;;;;;;;37.09;23.61;101126.31;4922588;28;98086;-70
2021/06/07 09:49:49;;;;;;;11.73;10.82;;;;;;;34.61;26.70;101128.66;4922426;28;100199;-76
2021/06/07 09:52:28;;;;;;;11.80;10.70;;;;;;;35.18;25.54;101121.59;4922809;28;98735;-76
2021/06/07 09:55:18;;;;;;;11.48;10.38;;;;;;;35.15;26.09;101116.81;4904374;28;98455;-76
2021/06/07 09:57:50;;;;;;;11.25;10.35;;;;;;;37.61;22.19;101121.97;4887061;28;98132;-70
2021/06/07 10:00:43;;;;;;;11.18;10.20;;;;;;;36.66;23.51;101123.59;4920931;28;98462;-70
2021/06/07 10:03:20;;;;;;;11.35;10.35;;;;;;;36.95;23.43;101116.22;4918963;28;99021;-70
2021/06/07 10:05:49;;;;;;;11.10;10.10;;;;;;;37.16;23.73;101105.72;4921095;28;98766;-75
2021/06/07 10:08:15;;;;;;;10.70;9.73;;;;;;;37.79;23.12;101113.88;4902999;28;97886;-76
2021/06/07 10:10:41;;;;;;;9.63;8.82;;;;;;;37.31;23.36;101101.38;4901621;28;98206;-77
2021/06/07 10:13:12;;;;;;;11.40;10.30;;;;;;;33.78;26.57;101104.63;4921659;28;98602;-76
2021/06/07 10:15:46;;;;;;;10.50;9.55;;;;;;;33.81;27.09;101099.00;4921126;28;98020;-72
2021/06/07 10:18:17;;;;;;;11.18;10.18;;;;;;;35.08;24.87;101103.69;4903459;28;98138;-73
2021/06/07 10:20:53;;;;;;;10.32;9.43;;;;;;;35.86;23.09;101096.13;4920237;28;117898;-72
2021/06/07 10:23:24;;;;;;;10.15;9.15;;;;;;;35.59;24.24;101096.19;4921517;28;98995;-72
2021/06/07 10:25:52;;;;;;;10.25;8.75;;;;;;;36.52;23.69;101099.41;4889193;28;98277;-79
2021/06/07 10:28:26;;;;;;;10.82;9.73;;;;;;;38.03;20.42;101101.22;4884104;28;97917;-79
2021/06/07 10:30:53;;;;;;;10.02;9.13;;;;;;;38.04;21.80;101102.84;4885388;28;98255;-79
2021/06/07 10:33:30;;;;;;;9.73;8.88;;;;;;;37.11;23.89;101098.59;4856736;28;98069;-72
2021/06/07 10:35:56;;;;;;;10.10;9.02;;;;;;;38.33;20.41;101099.28;4913167;28;97911;-72
2021/06/07 10:38:34;;;;;;;10.27;9.30;;;;;;;37.31;21.63;101095.75;4919234;28;98124;-72
2021/06/07 10:41:26;;;;;;;10.32;9.43;;;;;;;34.63;24.53;101083.47;4869032;28;98869;-79
2021/06/07 10:43:59;;;;;;;9.98;9.07;;;;;;;36.60;23.37;101082.00;4912677;28;98554;-78
2021/06/07 10:46:34;;;;;;;9.60;8.70;;;;;;;35.43;24.80;101076.41;4887696;28;125310;-79
2021/06/07 10:49:01;;;;;;;9.48;8.68;;;;;;;35.58;23.60;101071.41;4903839;28;97912;-79
2021/06/07 10:51:32;;;;;;;9.30;8.50;;;;;;;35.72;22.87;101079.56;4903121;28;98363;-79
2021/06/07 10:54:46;;;;;;;9.02;8.23;;;;;;;37.53;21.62;101082.00;4903386;28;106599;-79
2021/06/07 10:57:30;;;;;;;8.68;7.97;;;;;;;38.11;21.46;101073.69;4858299;28;100827;-79
2021/06/07 10:59:57;;;;;;;8.02;7.43;;;;;;;36.88;22.48;101068.59;4843779;28;98126;-80
2021/06/07 11:02:25;;;;;;;13.52;7.22;;;;;;;36.90;21.77;101076.56;4882436;28;98679;-80
2021/06/07 11:05:20;;;;;;;12.45;7.22;;;;;;;36.76;21.45;101064.44;4884407;28;101224;-72
2021/06/07 11:08:05;;;;;;;12.88;7.47;;;;;;;36.49;21.13;101067.38;4902191;28;98132;-73
2021/06/07 11:10:56;;;;;;;8.15;7.45;;;;;;;36.37;21.47;101074.41;4893990;28;98136;-79
2021/06/07 11:13:22;;;;;;;8.00;7.30;;;;;;;34.19;24.26;101069.13;4902921;28;98615;-71